createdAt,value
2023-07-18T00:01:37.265Z,24.86
2023-07-18T00:04:05.161Z,24.84
2023-07-18T00:06:33.446Z,24.81
2023-07-18T00:09:01.085Z,24.78
2023-07-18T00:11:28.734Z,24.78
2023-07-18T00:13:56.365Z,24.74
2023-07-18T00:16:24.109Z,24.70
2023-07-18T00:18:51.732Z,24.67
2023-07-18T00:21:19.607Z,24.68
2023-07-18T00:23:48.451Z,24.64
2023-07-18T00:26:17.254Z,24.61
2023-07-18T00:28:44.783Z,24.60
2023-07-18T00:31:12.399Z,24.61
2023-07-18T00:33:39.995Z,24.64
2023-07-18T00:36:07.912Z,24.65
2023-07-18T00:38:35.925Z,24.66
2023-07-18T00:41:05.870Z,24.69
2023-07-18T00:43:34.071Z,24.73
2023-07-18T00:46:01.871Z,24.75
2023-07-18T00:48:29.537Z,24.75
2023-07-18T00:50:57.373Z,24.75
2023-07-18T00:53:25.118Z,24.73
2023-07-18T00:55:54.333Z,24.71
2023-07-18T00:58:22.249Z,24.71
2023-07-18T01:00:49.926Z,24.72
2023-07-18T01:03:18.963Z,24.76
2023-07-18T01:05:46.681Z,24.77
2023-07-18T01:08:14.338Z,24.75
2023-07-18T01:10:42.053Z,24.75
2023-07-18T01:13:09.691Z,24.76
2023-07-18T01:15:37.507Z,24.75
2023-07-18T01:18:10.606Z,24.72
2023-07-18T01:20:39.453Z,24.67
2023-07-18T01:23:07.054Z,24.58
2023-07-18T01:25:35.905Z,24.55
2023-07-18T01:28:04.429Z,24.52
2023-07-18T01:30:32.084Z,24.51
2023-07-18T01:32:59.632Z,24.48
2023-07-18T01:35:27.923Z,24.44
2023-07-18T01:37:56.374Z,24.45
2023-07-18T01:40:24.330Z,24.44
2023-07-18T01:42:53.393Z,24.38
2023-07-18T01:45:24.366Z,24.34
2023-07-18T01:47:52.646Z,24.31
2023-07-18T01:50:20.860Z,24.24
2023-07-18T01:52:49.163Z,24.21
2023-07-18T01:55:17.120Z,24.20
2023-07-18T01:57:45.687Z,24.17
2023-07-18T02:00:14.110Z,24.14
2023-07-18T02:02:41.842Z,24.11
2023-07-18T02:05:10.129Z,24.09
2023-07-18T02:07:37.808Z,24.11
2023-07-18T02:10:05.886Z,24.11
2023-07-18T02:12:33.478Z,24.08
2023-07-18T02:15:01.312Z,24.03
2023-07-18T02:17:28.950Z,24.00
2023-07-18T02:19:56.957Z,24.00
2023-07-18T02:22:24.483Z,23.97
2023-07-18T02:24:52.132Z,23.95
2023-07-18T02:27:21.162Z,23.94
2023-07-18T02:29:50.574Z,23.90
2023-07-18T02:32:18.321Z,23.90
2023-07-18T02:34:45.729Z,23.88
2023-07-18T02:37:13.458Z,23.87
2023-07-18T02:39:45.805Z,23.86
2023-07-18T02:42:13.664Z,23.88
2023-07-18T02:44:41.249Z,23.88
2023-07-18T02:47:09.584Z,23.83
2023-07-18T02:49:37.387Z,23.77
2023-07-18T02:52:05.274Z,23.79
2023-07-18T02:54:32.845Z,23.75
2023-07-18T02:57:01.428Z,23.72
2023-07-18T02:59:29.280Z,23.62
2023-07-18T03:01:58.536Z,23.60
2023-07-18T03:04:28.059Z,23.57
2023-07-18T03:06:55.632Z,23.56
2023-07-18T03:09:23.432Z,23.56
2023-07-18T03:11:54.217Z,23.56
2023-07-18T03:14:23.779Z,23.60
2023-07-18T03:16:52.894Z,23.63
2023-07-18T03:19:20.638Z,23.66
2023-07-18T03:21:48.202Z,23.69
2023-07-18T03:24:15.727Z,23.76
2023-07-18T03:26:43.633Z,23.78
2023-07-18T03:29:11.244Z,23.80
2023-07-18T03:31:40.920Z,23.83
2023-07-18T03:34:08.824Z,23.86
2023-07-18T03:36:38.403Z,23.89
2023-07-18T03:39:07.272Z,23.90
2023-07-18T03:41:34.891Z,23.93
2023-07-18T03:44:02.545Z,23.98
2023-07-18T03:46:30.114Z,23.96
2023-07-18T03:48:58.243Z,23.97
2023-07-18T03:51:26.505Z,24.00
2023-07-18T03:53:56.642Z,24.05
2023-07-18T03:56:24.867Z,24.08
2023-07-18T03:58:52.899Z,24.12
2023-07-18T04:01:21.009Z,24.15
2023-07-18T04:03:50.333Z,24.15
2023-07-18T04:06:17.929Z,24.16
2023-07-18T04:08:45.469Z,24.16
2023-07-18T04:11:13.066Z,24.18
2023-07-18T04:13:40.807Z,24.21
2023-07-18T04:16:08.577Z,24.24
2023-07-18T04:18:36.398Z,24.25
2023-07-18T04:21:03.888Z,24.26
2023-07-18T04:23:31.943Z,24.25
2023-07-18T04:26:00.736Z,24.25
2023-07-18T04:28:29.271Z,24.27
2023-07-18T04:30:56.810Z,24.30
2023-07-18T04:33:24.581Z,24.34
2023-07-18T04:35:52.092Z,24.37
2023-07-18T04:38:19.493Z,24.38
2023-07-18T04:40:47.619Z,24.36
2023-07-18T04:43:15.508Z,24.33
2023-07-18T04:45:45.844Z,24.33
2023-07-18T04:48:17.582Z,24.35
2023-07-18T04:50:46.114Z,24.37
2023-07-18T04:53:14.138Z,24.40
2023-07-18T04:55:41.779Z,24.45
2023-07-18T04:58:09.668Z,24.47
2023-07-18T05:00:37.931Z,24.47
2023-07-18T05:03:06.931Z,24.45
2023-07-18T05:05:34.674Z,24.47
2023-07-18T05:08:03.235Z,24.49
2023-07-18T05:10:30.838Z,24.47
2023-07-18T05:12:58.574Z,24.45
2023-07-18T05:15:26.241Z,24.44
2023-07-18T05:17:54.182Z,24.42
2023-07-18T05:20:21.954Z,24.43
2023-07-18T05:22:49.390Z,24.46
2023-07-18T05:25:17.931Z,24.49
2023-07-18T05:27:45.619Z,24.53
2023-07-18T05:30:17.778Z,24.56
2023-07-18T05:32:46.402Z,24.58
2023-07-18T05:35:16.802Z,24.62
2023-07-18T05:37:44.809Z,24.65
2023-07-18T05:40:12.937Z,24.69
2023-07-18T05:42:41.254Z,24.76
2023-07-18T05:45:09.628Z,24.81
2023-07-18T05:47:38.640Z,24.90
2023-07-18T05:50:07.924Z,24.98
2023-07-18T05:52:35.546Z,25.05
2023-07-18T05:55:05.506Z,25.10
2023-07-18T05:57:33.187Z,25.18
2023-07-18T06:00:01.085Z,25.21
2023-07-18T06:02:29.415Z,25.23
2023-07-18T06:04:57.393Z,25.29
2023-07-18T06:07:24.914Z,25.32
2023-07-18T06:09:53.634Z,25.39
2023-07-18T06:12:21.374Z,25.46
2023-07-18T06:14:49.753Z,25.51
2023-07-18T06:17:18.008Z,25.49
2023-07-18T06:19:47.703Z,25.50
2023-07-18T06:22:15.295Z,25.55
2023-07-18T06:24:43.296Z,25.58
2023-07-18T06:27:11.210Z,25.60
2023-07-18T06:29:39.026Z,25.63
2023-07-18T06:32:07.237Z,25.65
2023-07-18T06:34:42.324Z,25.73
2023-07-18T06:37:11.688Z,25.78
2023-07-18T06:39:39.988Z,25.78
2023-07-18T06:42:10.054Z,25.77
2023-07-18T06:44:39.046Z,25.84
2023-07-18T06:47:06.866Z,25.88
2023-07-18T06:49:34.554Z,25.96
2023-07-18T06:52:02.481Z,26.05
2023-07-18T06:54:30.287Z,26.20
2023-07-18T06:56:57.809Z,26.27
2023-07-18T06:59:25.741Z,26.28
2023-07-18T07:01:53.375Z,26.30
2023-07-18T07:04:21.071Z,26.35
2023-07-18T07:06:48.963Z,26.42
2023-07-18T07:09:17.132Z,26.47
2023-07-18T07:11:44.851Z,26.53
2023-07-18T07:14:13.195Z,26.55
2023-07-18T07:16:41.257Z,26.65
2023-07-18T07:19:09.199Z,26.73
2023-07-18T07:21:37.124Z,26.79
2023-07-18T07:24:05.290Z,26.85
2023-07-18T07:26:33.282Z,26.91
2023-07-18T07:29:01.058Z,26.96
2023-07-18T07:31:28.709Z,26.96
2023-07-18T07:33:56.461Z,26.96
2023-07-18T07:36:24.223Z,27.01
2023-07-18T07:38:52.010Z,26.93
2023-07-18T07:41:19.857Z,26.93
2023-07-18T07:43:47.884Z,26.90
2023-07-18T07:46:15.340Z,26.86
2023-07-18T07:48:42.964Z,26.76
2023-07-18T07:53:44.827Z,26.29
2023-07-18T07:56:12.429Z,26.52
2023-07-18T07:58:40.130Z,26.52
2023-07-18T08:01:08.268Z,26.43
2023-07-18T08:03:36.115Z,26.37
2023-07-18T08:06:04.136Z,26.37
2023-07-18T08:08:32.705Z,26.38
2023-07-18T08:11:00.646Z,26.34
2023-07-18T08:13:29.528Z,26.31
2023-07-18T08:15:57.250Z,26.20
2023-07-18T08:18:25.223Z,26.12
2023-07-18T08:20:53.224Z,26.13
2023-07-18T08:23:21.139Z,26.08
2023-07-18T08:25:48.934Z,26.03
2023-07-18T08:28:16.546Z,25.96
2023-07-18T08:30:44.784Z,25.92
2023-07-18T08:33:12.645Z,25.84
2023-07-18T08:35:40.178Z,25.80
2023-07-18T08:38:08.047Z,25.75
2023-07-18T08:40:35.698Z,25.61
2023-07-18T08:43:04.119Z,25.45
2023-07-18T08:45:33.078Z,25.32
2023-07-18T08:48:00.648Z,25.29
2023-07-18T08:50:28.264Z,25.25
2023-07-18T08:52:55.993Z,25.25
2023-07-18T08:55:24.309Z,25.24
2023-07-18T08:57:51.848Z,25.15
2023-07-18T09:00:22.249Z,25.01
2023-07-18T09:02:50.505Z,24.93
2023-07-18T09:05:28.103Z,24.86
2023-07-18T09:07:57.465Z,24.80
2023-07-18T09:10:25.152Z,24.77
2023-07-18T09:12:53.735Z,24.72
2023-07-18T09:15:21.835Z,24.66
2023-07-18T09:17:56.987Z,24.66
2023-07-18T09:20:27.403Z,24.64
2023-07-18T09:22:58.061Z,24.63
2023-07-18T09:25:26.597Z,24.58
2023-07-18T09:27:55.025Z,24.53
2023-07-18T09:30:43.554Z,24.52
2023-07-18T09:33:11.637Z,24.55
2023-07-18T09:35:42.461Z,24.59
2023-07-18T09:38:10.441Z,24.60
2023-07-18T09:40:39.419Z,24.67
2023-07-18T09:43:07.505Z,24.78
2023-07-18T09:45:35.225Z,24.90
2023-07-18T09:48:04.604Z,24.98
2023-07-18T09:50:32.761Z,25.07
2023-07-18T09:53:00.383Z,25.20
2023-07-18T09:55:28.787Z,25.36
2023-07-18T09:57:57.069Z,25.54
2023-07-18T10:00:26.001Z,25.77
2023-07-18T10:02:54.353Z,25.90
2023-07-18T10:05:22.371Z,26.05
2023-07-18T10:07:50.118Z,26.20
2023-07-18T10:10:18.354Z,26.34
2023-07-18T10:12:55.477Z,26.46
2023-07-18T10:15:23.725Z,26.70
2023-07-18T10:17:51.469Z,26.86
2023-07-18T10:20:21.364Z,27.07
2023-07-18T10:22:51.658Z,27.30
2023-07-18T10:25:19.458Z,27.54
2023-07-18T10:27:47.916Z,27.68
2023-07-18T10:30:19.709Z,27.79
2023-07-18T10:32:54.184Z,27.86
2023-07-18T10:35:29.317Z,27.92
2023-07-18T10:38:07.846Z,28.05
2023-07-18T10:40:45.251Z,28.18
2023-07-18T10:43:18.465Z,28.33
2023-07-18T10:45:46.419Z,28.41
2023-07-18T10:48:15.767Z,28.45
2023-07-18T10:50:45.143Z,28.52
2023-07-18T10:53:17.525Z,28.52
2023-07-18T10:55:47.289Z,28.54
2023-07-18T10:58:20.565Z,28.57
2023-07-18T11:00:49.730Z,28.61
2023-07-18T11:03:22.500Z,28.58
2023-07-18T11:05:51.364Z,28.57
2023-07-18T11:08:30.024Z,28.50
2023-07-18T11:11:01.999Z,28.44
2023-07-18T11:13:34.211Z,28.40
2023-07-18T11:16:12.421Z,28.41
2023-07-18T11:18:42.531Z,28.44
2023-07-18T11:21:10.280Z,28.43
2023-07-18T11:23:38.977Z,28.53
2023-07-18T11:26:14.826Z,28.73
2023-07-18T11:28:44.136Z,28.93
2023-07-18T11:34:00.996Z,29.33
2023-07-18T11:36:32.943Z,29.47
2023-07-18T11:39:02.775Z,29.64
2023-07-18T11:41:41.109Z,29.73
2023-07-18T11:44:09.953Z,29.62
2023-07-18T11:46:45.175Z,29.47
2023-07-18T11:49:13.762Z,29.33
2023-07-18T11:51:41.711Z,29.31
2023-07-18T11:54:09.482Z,29.33
2023-07-18T11:56:37.297Z,29.33
2023-07-18T11:59:05.016Z,29.37
2023-07-18T12:01:36.368Z,29.43
2023-07-18T12:04:14.064Z,29.54
2023-07-18T12:06:42.628Z,29.69
2023-07-18T12:09:10.337Z,29.86
2023-07-18T12:11:38.208Z,30.00
2023-07-18T12:14:07.766Z,30.10
2023-07-18T12:16:37.849Z,30.15
2023-07-18T12:19:05.728Z,30.28
2023-07-18T12:21:33.415Z,30.38
2023-07-18T12:24:01.366Z,30.49
2023-07-18T12:26:29.223Z,30.54
2023-07-18T12:28:56.865Z,30.63
2023-07-18T12:31:24.941Z,30.76
2023-07-18T12:33:53.466Z,30.90
2023-07-18T12:36:21.992Z,31.00
2023-07-18T12:38:50.011Z,31.01
2023-07-18T12:41:18.398Z,30.83
2023-07-18T12:43:46.448Z,30.73
2023-07-18T12:46:14.030Z,30.69
2023-07-18T12:51:12.337Z,30.75
2023-07-18T12:53:40.183Z,30.81
2023-07-18T12:56:07.730Z,30.82
2023-07-18T12:58:35.471Z,30.78
2023-07-18T13:01:03.211Z,30.82
2023-07-18T13:03:33.878Z,30.89
2023-07-18T13:06:02.232Z,30.96
2023-07-18T13:08:30.090Z,31.00
2023-07-18T13:10:57.836Z,31.03
2023-07-18T13:13:26.270Z,31.08
2023-07-18T13:15:53.984Z,31.14
2023-07-18T13:18:21.700Z,31.11
2023-07-18T13:20:49.277Z,31.02
2023-07-18T13:23:17.063Z,30.91
2023-07-18T13:25:45.126Z,30.80
2023-07-18T13:28:12.868Z,30.64
2023-07-18T13:30:40.742Z,30.60
2023-07-18T13:33:10.668Z,30.54
2023-07-18T13:35:38.398Z,30.39
2023-07-18T13:38:07.267Z,30.36
2023-07-18T13:40:36.562Z,30.43
2023-07-18T13:43:04.617Z,30.50
2023-07-18T13:45:32.365Z,30.55
2023-07-18T13:47:59.969Z,30.54
2023-07-18T13:52:58.211Z,30.26
2023-07-18T13:55:25.934Z,30.18
2023-07-18T13:57:53.500Z,30.16
2023-07-18T14:00:21.311Z,30.13
2023-07-18T14:02:51.049Z,30.09
2023-07-18T14:05:18.794Z,30.12
2023-07-18T14:07:46.379Z,30.23
2023-07-18T14:10:14.299Z,30.32
2023-07-18T14:12:42.202Z,30.43
2023-07-18T14:15:10.983Z,30.57
2023-07-18T14:17:39.058Z,30.67
2023-07-18T14:20:07.385Z,30.78
2023-07-18T14:22:35.567Z,30.90
2023-07-18T14:25:03.664Z,30.91
2023-07-18T14:27:31.715Z,30.90
2023-07-18T14:29:59.465Z,30.94
2023-07-18T14:32:27.046Z,30.97
2023-07-18T14:34:54.841Z,30.97
2023-07-18T14:37:22.524Z,30.91
2023-07-18T14:40:03.652Z,30.89
2023-07-18T14:42:32.317Z,30.89
2023-07-18T14:45:00.138Z,30.84
2023-07-18T14:47:28.696Z,30.87
2023-07-18T14:49:57.765Z,30.88
2023-07-18T14:52:25.586Z,30.88
2023-07-18T14:54:57.743Z,30.89
2023-07-18T14:57:26.933Z,30.84
2023-07-18T14:59:54.923Z,30.77
2023-07-18T15:02:22.825Z,30.80
2023-07-18T15:04:50.954Z,30.86
2023-07-18T15:07:19.443Z,30.99
2023-07-18T15:09:49.374Z,31.21
2023-07-18T15:12:18.538Z,31.81
2023-07-18T15:14:47.039Z,32.56
2023-07-18T15:17:14.652Z,33.54
2023-07-18T15:19:42.286Z,34.54
2023-07-18T15:22:09.894Z,35.43
2023-07-18T15:24:37.917Z,36.18
2023-07-18T15:27:06.675Z,36.56
2023-07-18T15:29:34.941Z,36.68
2023-07-18T15:32:02.728Z,36.39
2023-07-18T15:34:30.533Z,36.60
2023-07-18T15:36:58.168Z,36.97
2023-07-18T15:39:25.980Z,37.13
2023-07-18T15:41:53.921Z,37.31
2023-07-18T15:44:21.716Z,37.15
2023-07-18T15:46:50.326Z,36.92
2023-07-18T15:49:18.270Z,36.30
2023-07-18T15:51:45.937Z,35.40
2023-07-18T15:54:13.626Z,34.55
2023-07-18T15:56:43.006Z,33.75
2023-07-18T15:59:10.669Z,33.30
2023-07-18T16:01:38.398Z,33.07
2023-07-18T16:04:07.820Z,33.17
2023-07-18T16:06:35.546Z,33.72
2023-07-18T16:09:04.124Z,33.92
2023-07-18T16:11:32.062Z,33.42
2023-07-18T16:13:59.816Z,32.80
2023-07-18T16:16:27.701Z,32.10
2023-07-18T16:18:57.316Z,31.47
2023-07-18T16:21:25.666Z,30.96
2023-07-18T16:23:53.589Z,30.60
2023-07-18T16:26:22.148Z,30.28
2023-07-18T16:28:50.858Z,29.98
2023-07-18T16:31:22.704Z,29.71
2023-07-18T16:33:50.969Z,29.48
2023-07-18T16:36:19.261Z,29.20
2023-07-18T16:38:49.080Z,28.94
2023-07-18T16:41:17.042Z,28.71
2023-07-18T16:43:44.842Z,28.48
2023-07-18T16:46:12.569Z,28.30
2023-07-18T16:48:40.208Z,28.15
2023-07-18T16:51:07.849Z,27.97
2023-07-18T16:53:35.636Z,27.79
2023-07-18T16:56:03.519Z,27.63
2023-07-18T16:58:31.225Z,27.48
2023-07-18T17:00:58.821Z,27.35
2023-07-18T17:03:26.478Z,27.19
2023-07-18T17:05:54.427Z,27.04
2023-07-18T17:08:22.421Z,26.92
2023-07-18T17:10:50.345Z,26.82
2023-07-18T17:13:20.198Z,26.70
2023-07-18T17:15:47.960Z,26.58
2023-07-18T17:18:15.640Z,26.48
2023-07-18T17:20:43.431Z,26.31
2023-07-18T17:23:12.191Z,26.22
2023-07-18T17:25:40.414Z,26.16
2023-07-18T17:28:08.065Z,26.10
2023-07-18T17:30:36.111Z,26.03
2023-07-18T17:33:03.910Z,25.99
2023-07-18T17:35:31.444Z,25.93
2023-07-18T17:37:59.121Z,25.88
2023-07-18T17:40:26.672Z,25.81
2023-07-18T17:42:54.480Z,25.72
2023-07-18T17:45:23.525Z,25.61
2023-07-18T17:47:51.507Z,25.49
2023-07-18T17:50:19.124Z,25.39
2023-07-18T17:52:47.015Z,25.30
2023-07-18T17:55:14.868Z,25.18
2023-07-18T17:57:42.332Z,25.06
2023-07-18T18:00:10.236Z,24.90
2023-07-18T18:02:37.913Z,24.74
2023-07-18T18:05:35.517Z,24.62
2023-07-18T18:08:04.479Z,24.53
2023-07-18T18:10:32.246Z,24.44
2023-07-18T18:13:00.287Z,24.35
2023-07-18T18:15:28.572Z,24.26
2023-07-18T18:17:56.458Z,24.17
2023-07-18T18:20:24.511Z,24.10
2023-07-18T18:22:52.840Z,23.97
2023-07-18T18:25:20.482Z,23.86
2023-07-18T18:27:48.509Z,23.80
2023-07-18T18:30:16.197Z,23.73
2023-07-18T18:32:43.943Z,23.65
2023-07-18T18:35:11.886Z,23.58
2023-07-18T18:37:41.095Z,23.47
2023-07-18T18:40:09.250Z,23.37
2023-07-18T18:42:36.847Z,23.28
2023-07-18T18:45:05.279Z,23.21
2023-07-18T18:47:33.027Z,23.14
2023-07-18T18:50:01.290Z,23.09
2023-07-18T18:52:28.989Z,23.08
2023-07-18T18:55:08.702Z,23.03
2023-07-18T18:57:41.314Z,22.93
2023-07-18T19:00:10.290Z,22.84
2023-07-18T19:02:38.050Z,22.77
2023-07-18T19:05:06.955Z,22.70
2023-07-18T19:07:34.584Z,22.63
2023-07-18T19:10:03.593Z,22.58
2023-07-18T19:12:31.265Z,22.54
2023-07-18T19:14:58.959Z,22.48
2023-07-18T19:17:26.675Z,22.43
2023-07-18T19:19:54.351Z,22.36
2023-07-18T19:22:22.211Z,22.30
2023-07-18T19:24:49.792Z,22.25
2023-07-18T19:27:17.619Z,22.18
2023-07-18T19:29:45.854Z,22.09
2023-07-18T19:32:13.646Z,22.03
2023-07-18T19:34:44.698Z,21.98
2023-07-18T19:37:12.398Z,21.93
2023-07-18T19:39:40.167Z,21.86
2023-07-18T19:42:08.324Z,21.79
2023-07-18T19:44:36.261Z,21.72
2023-07-18T19:47:04.582Z,21.66
2023-07-18T19:49:32.367Z,21.58
2023-07-18T19:51:59.897Z,21.53
2023-07-18T19:54:27.713Z,21.49
2023-07-18T19:56:55.505Z,21.44
2023-07-18T19:59:23.930Z,21.37
2023-07-18T20:01:51.873Z,21.30
2023-07-18T20:04:19.657Z,21.24
2023-07-18T20:06:47.100Z,21.21
2023-07-18T20:10:43.297Z,20.94
2023-07-18T20:13:11.137Z,21.20
2023-07-18T20:15:38.768Z,21.24
2023-07-18T20:18:06.619Z,21.24
2023-07-18T20:20:34.437Z,21.19
2023-07-18T20:23:03.119Z,21.14
2023-07-18T20:25:31.995Z,21.06
2023-07-18T20:28:00.935Z,21.02
2023-07-18T20:30:28.635Z,20.98
2023-07-18T20:32:57.182Z,20.95
2023-07-18T20:35:25.956Z,20.90
2023-07-18T20:37:53.615Z,20.86
2023-07-18T20:40:21.801Z,20.82
2023-07-18T20:42:49.435Z,20.80
2023-07-18T20:45:17.071Z,20.78
2023-07-18T20:47:45.357Z,20.74
2023-07-18T20:50:17.138Z,20.67
2023-07-18T20:52:44.776Z,20.63
2023-07-18T20:55:12.493Z,20.58
2023-07-18T20:57:40.308Z,20.52
2023-07-18T21:00:09.206Z,20.48
2023-07-18T21:02:36.961Z,20.43
2023-07-18T21:05:05.037Z,20.40
2023-07-18T21:07:32.683Z,20.36
2023-07-18T21:10:00.364Z,20.33
2023-07-18T21:12:27.981Z,20.30
2023-07-18T21:14:55.598Z,20.23
2023-07-18T21:17:23.726Z,20.15
2023-07-18T21:19:51.386Z,20.09
2023-07-18T21:22:19.058Z,20.05
2023-07-18T21:24:46.728Z,20.00
2023-07-18T21:27:14.321Z,19.92
2023-07-18T21:29:41.832Z,19.90
2023-07-18T21:32:09.619Z,19.88
2023-07-18T21:34:37.401Z,19.86
2023-07-18T21:37:05.410Z,19.85
2023-07-18T21:39:36.986Z,19.86
2023-07-18T21:42:04.782Z,19.85
2023-07-18T21:44:32.245Z,19.85
2023-07-18T21:46:59.832Z,19.81
2023-07-18T21:49:27.605Z,19.76
2023-07-18T21:51:55.483Z,19.75
2023-07-18T21:54:23.167Z,19.79
2023-07-18T21:56:50.954Z,19.81
2023-07-18T21:59:18.552Z,19.81
2023-07-18T22:01:46.806Z,19.83
2023-07-18T22:04:14.592Z,19.82
2023-07-18T22:06:42.256Z,19.81
2023-07-18T22:09:11.972Z,19.83
2023-07-18T22:11:39.568Z,19.85
2023-07-18T22:14:07.220Z,19.84
2023-07-18T22:16:34.849Z,19.88
2023-07-18T22:19:02.476Z,19.94
2023-07-18T22:21:30.001Z,19.99
2023-07-18T22:23:57.578Z,20.02
2023-07-18T22:26:25.389Z,20.02
2023-07-18T22:28:53.092Z,20.01
2023-07-18T22:31:21.019Z,20.02
2023-07-18T22:33:48.849Z,20.06
2023-07-18T22:36:16.456Z,20.07
2023-07-18T22:38:44.220Z,20.07
2023-07-18T22:41:11.654Z,20.07
2023-07-18T22:43:39.313Z,20.00
2023-07-18T22:46:06.967Z,19.94
2023-07-18T22:48:34.901Z,19.90
2023-07-18T22:51:03.233Z,19.85
2023-07-18T22:53:30.791Z,19.82
2023-07-18T22:55:58.426Z,19.81
2023-07-18T22:58:25.984Z,19.79
2023-07-18T23:00:54.145Z,19.76
2023-07-18T23:03:21.882Z,19.73
2023-07-18T23:05:49.548Z,19.70
2023-07-18T23:08:17.308Z,19.70
2023-07-18T23:10:44.899Z,19.67
2023-07-18T23:13:13.334Z,19.67
2023-07-18T23:15:42.822Z,19.63
2023-07-18T23:18:10.325Z,19.59
2023-07-18T23:20:38.115Z,19.54
2023-07-18T23:23:06.641Z,19.52
2023-07-18T23:25:34.310Z,19.46
2023-07-18T23:28:01.959Z,19.40
2023-07-18T23:30:29.807Z,19.33
2023-07-18T23:32:57.893Z,19.30
2023-07-18T23:35:28.382Z,19.28
2023-07-18T23:37:57.106Z,19.26
2023-07-18T23:40:24.786Z,19.20
2023-07-18T23:42:52.698Z,19.19
2023-07-18T23:45:20.432Z,19.15
2023-07-18T23:47:48.010Z,19.09
2023-07-18T23:50:15.888Z,19.04
2023-07-18T23:52:43.385Z,18.99
2023-07-18T23:55:10.982Z,18.96
2023-07-18T23:57:38.629Z,18.91
